Time;durP1;ratioP1;P1;durP2;ratioP2;P2;SDS_P1;SDS_P2;PMS_P1;PMS_P2;Temp;Humidity;BMP_temperature;BMP_pressure;BME280_temperature;BME280_humidity;BME280_pressure;Samples;Min_cycle;Max_cycle;Signal;HPM_P1;HPM_P2
2022/06/13 00:00:08;;;;;;;2.92;2.20;;;23.00;99.90;;;;;;4226838;28;20619;-80
2022/06/13 00:02:10;;;;;;;3.78;2.05;;;23.00;99.90;;;;;;4228480;28;20258;-80
2022/06/13 00:04:13;;;;;;;3.95;2.40;;;23.00;99.90;;;;;;4230696;28;20263;-80
2022/06/13 00:06:16;;;;;;;3.65;2.00;;;23.00;99.90;;;;;;4231677;28;20214;-80
2022/06/13 00:08:18;;;;;;;3.67;1.90;;;23.00;99.90;;;;;;4231362;28;20295;-80
2022/06/13 00:10:21;;;;;;;4.85;2.05;;;22.90;99.90;;;;;;4229398;28;21010;-80
2022/06/13 00:12:23;;;;;;;3.05;2.20;;;23.00;99.90;;;;;;4231275;28;20221;-80
2022/06/13 00:14:25;;;;;;;4.00;2.15;;;22.90;99.90;;;;;;4231580;28;20263;-80
2022/06/13 00:16:29;;;;;;;4.85;2.28;;;23.00;99.90;;;;;;4228935;28;20287;-80
2022/06/13 00:18:31;;;;;;;3.15;2.20;;;22.90;99.90;;;;;;4231894;27;20214;-80
2022/06/13 00:20:34;;;;;;;3.67;2.08;;;22.90;99.90;;;;;;4230796;28;20275;-80
2022/06/13 00:22:36;;;;;;;4.55;2.22;;;22.90;99.90;;;;;;4230921;28;20218;-80
2022/06/13 00:24:39;;;;;;;5.28;2.40;;;22.90;99.90;;;;;;4230629;28;20210;-80
2022/06/13 00:26:41;;;;;;;4.03;2.17;;;22.90;99.90;;;;;;4229833;28;20258;-80
2022/06/13 00:28:44;;;;;;;6.13;2.45;;;22.90;99.90;;;;;;4229589;28;20214;-79
2022/06/13 00:30:46;;;;;;;3.67;2.33;;;22.90;99.90;;;;;;4230540;28;20631;-80
2022/06/13 00:32:50;;;;;;;2.88;2.13;;;22.90;99.90;;;;;;4228972;28;20270;-80
2022/06/13 00:34:52;;;;;;;3.85;2.30;;;22.90;99.90;;;;;;4239809;27;21454;-80
2022/06/13 00:36:54;;;;;;;3.83;2.50;;;22.90;99.90;;;;;;4232757;27;20620;-80
2022/06/13 00:38:57;;;;;;;3.08;2.13;;;22.90;99.90;;;;;;4230444;28;20259;-80
2022/06/13 00:40:59;;;;;;;3.30;2.25;;;22.90;99.90;;;;;;4246579;27;20660;-80
2022/06/13 00:43:02;;;;;;;3.95;2.47;;;22.90;99.90;;;;;;4247802;27;20718;-80
2022/06/13 00:45:15;;;;;;;4.78;2.05;;;22.90;99.90;;;;;;4230718;27;20266;-80
2022/06/13 00:47:17;;;;;;;2.58;2.15;;;22.90;99.90;;;;;;4229575;27;20289;-80
2022/06/13 00:49:24;;;;;;;3.80;1.95;;;22.90;99.90;;;;;;4230951;28;20555;-79
2022/06/13 00:51:26;;;;;;;3.60;2.53;;;22.90;99.90;;;;;;4230276;27;20320;-80
2022/06/13 00:53:32;;;;;;;4.72;2.30;;;22.80;99.90;;;;;;4244562;27;20267;-80
2022/06/13 00:55:39;;;;;;;5.88;2.35;;;22.90;99.90;;;;;;4230984;27;20653;-80
2022/06/13 00:57:42;;;;;;;4.95;2.15;;;22.80;99.90;;;;;;4233969;27;20213;-79
2022/06/13 00:59:45;;;;;;;3.85;2.35;;;22.80;99.90;;;;;;4242161;27;20615;-79
2022/06/13 01:01:47;;;;;;;4.22;2.35;;;22.80;99.90;;;;;;4238744;27;20218;-80
2022/06/13 01:03:50;;;;;;;4.43;2.20;;;22.80;99.90;;;;;;4230575;28;21004;-80
2022/06/13 01:05:56;;;;;;;4.97;2.78;;;22.80;99.90;;;;;;4241573;27;20278;-80
2022/06/13 01:08:01;;;;;;;4.63;2.22;;;22.80;99.90;;;;;;4230227;28;20233;-79
2022/06/13 01:12:26;;;;;;;3.67;2.20;;;22.80;99.90;;;;;;4230946;28;20601;-80
2022/06/13 01:14:51;;;;;;;4.78;2.28;;;22.80;99.90;;;;;;4228681;28;20225;-80
2022/06/13 01:17:11;;;;;;;4.13;2.20;;;22.80;99.90;;;;;;4229334;28;20618;-80
2022/06/13 01:19:53;;;;;;;3.45;2.08;;;22.80;99.90;;;;;;4228404;28;20213;-80
2022/06/13 01:22:08;;;;;;;4.20;2.55;;;22.80;99.90;;;;;;4213035;28;20669;-80
2022/06/13 01:24:55;;;;;;;4.75;2.50;;;22.80;99.90;;;;;;4227017;28;20218;-79
2022/06/13 01:27:42;;;;;;;3.95;2.13;;;22.80;99.90;;;;;;4229421;28;20613;-80
2022/06/13 01:29:53;;;;;;;3.30;1.95;;;22.80;99.90;;;;;;4167911;28;20314;-80
2022/06/13 01:32:04;;;;;;;4.57;2.47;;;22.70;99.90;;;;;;4165951;28;20279;-79
2022/06/13 01:34:20;;;;;;;3.33;2.13;;;22.70;99.90;;;;;;4162022;28;20254;-79
2022/06/13 01:36:32;;;;;;;5.97;2.38;;;22.80;99.90;;;;;;4220055;28;20218;-80
2022/06/13 01:38:43;;;;;;;4.63;2.45;;;22.70;99.90;;;;;;4220270;28;20210;-80
2022/06/13 01:40:58;;;;;;;3.65;2.30;;;22.70;99.90;;;;;;4220150;28;20735;-80
2022/06/13 01:43:09;;;;;;;4.85;2.42;;;22.70;99.90;;;;;;4229725;27;20254;-80
2022/06/13 01:45:17;;;;;;;4.18;2.13;;;22.70;99.90;;;;;;4226641;27;20229;-80
2022/06/13 01:47:30;;;;;;;3.78;2.22;;;22.70;99.90;;;;;;4228039;28;20217;-80
2022/06/13 01:49:40;;;;;;;4.40;2.30;;;22.70;99.90;;;;;;4228513;27;20707;-79
2022/06/13 01:51:49;;;;;;;4.75;2.33;;;22.70;99.90;;;;;;4229832;27;20213;-80
2022/06/13 01:53:57;;;;;;;3.58;2.42;;;22.70;99.90;;;;;;4227683;28;20209;-80
2022/06/13 01:56:03;;;;;;;4.30;2.22;;;22.70;99.90;;;;;;4227665;28;20213;-80
2022/06/13 01:58:11;;;;;;;4.65;2.40;;;22.70;99.90;;;;;;4227278;27;20210;-80
2022/06/13 02:00:18;;;;;;;4.30;2.67;;;22.70;99.90;;;;;;4225694;28;20210;-80
2022/06/13 02:02:30;;;;;;;4.57;2.50;;;22.70;99.90;;;;;;4228721;27;20224;-80
2022/06/13 02:04:37;;;;;;;4.13;2.58;;;22.70;99.90;;;;;;4230122;27;20626;-81
2022/06/13 02:06:43;;;;;;;6.20;2.35;;;22.70;99.90;;;;;;4229680;27;20272;-80
2022/06/13 02:08:50;;;;;;;4.05;2.30;;;22.70;99.90;;;;;;4226768;28;20308;-80
2022/06/13 02:10:56;;;;;;;4.18;2.10;;;22.70;99.90;;;;;;4213668;28;20647;-80
2022/06/13 02:13:06;;;;;;;4.35;2.38;;;22.70;99.90;;;;;;4212147;28;20850;-81
2022/06/13 02:15:14;;;;;;;3.72;2.75;;;22.70;99.90;;;;;;4211269;28;20217;-80
2022/06/13 02:17:19;;;;;;;4.90;2.25;;;22.70;99.90;;;;;;4212043;28;20629;-80
2022/06/13 02:19:27;;;;;;;4.05;2.30;;;22.70;99.90;;;;;;4214347;28;20292;-80
2022/06/13 02:21:37;;;;;;;3.92;2.25;;;22.70;99.90;;;;;;4211626;28;20218;-80
2022/06/13 02:23:47;;;;;;;5.13;2.28;;;22.70;99.90;;;;;;4211067;28;20562;-80
2022/06/13 02:25:54;;;;;;;3.95;2.10;;;22.70;99.90;;;;;;4211813;28;20213;-80
2022/06/13 02:27:58;;;;;;;5.05;2.50;;;22.70;99.90;;;;;;4211511;28;20749;-80
2022/06/13 02:30:05;;;;;;;3.35;2.20;;;22.70;99.90;;;;;;4211197;28;20256;-79
2022/06/13 02:32:10;;;;;;;4.32;2.42;;;22.70;99.90;;;;;;4209291;28;20264;-80
2022/06/13 02:34:16;;;;;;;4.07;2.40;;;22.70;99.90;;;;;;4211371;28;20268;-81
2022/06/13 02:36:28;;;;;;;4.10;2.22;;;22.60;99.90;;;;;;4211672;28;20272;-80
2022/06/13 02:38:36;;;;;;;3.22;2.25;;;22.60;99.90;;;;;;4211291;28;20264;-80
2022/06/13 02:40:44;;;;;;;4.63;2.33;;;22.60;99.90;;;;;;4210170;28;20267;-80
2022/06/13 02:42:50;;;;;;;4.32;2.50;;;22.60;99.90;;;;;;4212701;28;20217;-80
2022/06/13 02:44:59;;;;;;;4.38;2.40;;;22.60;99.90;;;;;;4213065;28;20226;-81
2022/06/13 02:47:09;;;;;;;4.13;2.45;;;22.60;99.90;;;;;;4212829;28;20214;-80
2022/06/13 02:49:16;;;;;;;4.00;2.50;;;22.60;99.90;;;;;;4208761;28;20844;-80
2022/06/13 02:51:28;;;;;;;3.70;2.22;;;22.60;99.90;;;;;;4212447;28;20564;-80
2022/06/13 02:53:41;;;;;;;4.80;2.60;;;22.60;99.90;;;;;;4211418;28;20259;-80
2022/06/13 02:55:59;;;;;;;4.15;2.45;;;22.60;99.90;;;;;;4211662;28;20255;-80
2022/06/13 02:58:09;;;;;;;6.13;2.58;;;22.60;99.90;;;;;;4210937;28;20205;-80
2022/06/13 03:00:21;;;;;;;4.47;2.35;;;22.60;99.90;;;;;;4209533;28;20271;-80
2022/06/13 03:02:28;;;;;;;3.85;2.00;;;22.50;99.90;;;;;;4212530;28;20218;-80
2022/06/13 03:04:36;;;;;;;5.20;2.80;;;22.50;99.90;;;;;;4210950;28;20264;-80
2022/06/13 03:06:50;;;;;;;5.05;2.55;;;22.50;99.90;;;;;;4211579;28;20214;-80
2022/06/13 03:09:03;;;;;;;5.00;2.60;;;22.60;99.90;;;;;;4211316;28;20250;-81
2022/06/13 03:11:17;;;;;;;4.75;2.42;;;22.50;99.90;;;;;;4217709;28;20237;-80
2022/06/13 03:13:31;;;;;;;4.45;2.60;;;22.50;99.90;;;;;;4209409;28;20210;-80
2022/06/13 03:15:44;;;;;;;4.97;2.60;;;22.50;99.90;;;;;;4216778;28;20250;-80
2022/06/13 03:17:52;;;;;;;4.63;2.40;;;22.50;99.90;;;;;;4212385;28;20214;-80
2022/06/13 03:20:01;;;;;;;4.97;2.70;;;22.50;99.90;;;;;;4210443;28;20626;-80
2022/06/13 03:22:09;;;;;;;4.57;2.45;;;22.50;99.90;;;;;;4208970;28;20222;-80
2022/06/13 03:24:14;;;;;;;6.38;2.80;;;22.50;99.90;;;;;;4210518;28;20282;-80
2022/06/13 03:26:20;;;;;;;5.95;2.83;;;22.50;99.90;;;;;;4217224;28;20214;-80
2022/06/13 03:28:28;;;;;;;4.68;2.38;;;22.50;99.90;;;;;;4213735;28;20741;-80
2022/06/13 03:30:32;;;;;;;5.95;2.38;;;22.50;99.90;;;;;;4210556;28;20259;-80
2022/06/13 03:32:39;;;;;;;4.97;2.47;;;22.40;99.90;;;;;;4210307;28;20240;-80
2022/06/13 03:34:45;;;;;;;3.75;2.50;;;22.50;99.90;;;;;;4213064;28;20214;-80
2022/06/13 03:36:51;;;;;;;4.00;2.92;;;22.40;99.90;;;;;;4214647;28;20226;-80
2022/06/13 03:39:00;;;;;;;4.57;2.80;;;22.40;99.90;;;;;;4217641;28;20654;-80
2022/06/13 03:41:03;;;;;;;5.03;2.67;;;22.40;99.90;;;;;;4212677;28;20302;-80
2022/06/13 03:43:10;;;;;;;5.07;2.88;;;22.40;99.90;;;;;;4214316;28;20274;-80
2022/06/13 03:45:19;;;;;;;5.07;2.65;;;22.40;99.90;;;;;;4215104;28;20287;-80
2022/06/13 03:47:28;;;;;;;5.38;2.80;;;22.50;99.90;;;;;;4214397;28;20263;-80
2022/06/13 03:49:35;;;;;;;4.45;2.65;;;22.40;99.90;;;;;;4213760;28;20234;-80
2022/06/13 03:51:42;;;;;;;3.75;2.45;;;22.40;99.90;;;;;;4216267;28;21572;-80
2022/06/13 03:53:48;;;;;;;6.43;2.40;;;22.40;99.90;;;;;;4215623;28;20217;-80
2022/06/13 03:55:58;;;;;;;5.90;2.33;;;22.40;99.90;;;;;;4216806;28;20271;-80
2022/06/13 03:58:07;;;;;;;5.95;2.72;;;22.40;99.90;;;;;;4214549;28;20210;-80
2022/06/13 04:00:14;;;;;;;4.80;2.47;;;22.40;99.90;;;;;;4217023;28;20302;-80
2022/06/13 04:02:20;;;;;;;4.90;2.45;;;22.40;99.90;;;;;;4217000;28;20278;-80
2022/06/13 04:04:26;;;;;;;4.13;2.55;;;22.40;99.90;;;;;;4221306;28;20226;-80
2022/06/13 04:06:35;;;;;;;5.20;2.67;;;22.40;99.90;;;;;;4217021;28;20670;-80
2022/06/13 04:08:38;;;;;;;5.38;2.58;;;22.40;99.90;;;;;;4211022;28;20251;-81
2022/06/13 04:10:53;;;;;;;4.55;2.33;;;22.40;99.90;;;;;;4230931;27;20234;-80
2022/06/13 04:13:26;;;;;;;6.82;2.80;;;22.40;99.90;;;;;;4234000;27;20262;-80
2022/06/13 04:15:57;;;;;;;5.65;2.53;;;22.50;99.90;;;;;;4233429;27;20613;-81
2022/06/13 04:18:06;;;;;;;4.07;2.58;;;22.40;99.90;;;;;;4235961;27;21021;-80
2022/06/13 04:20:21;;;;;;;4.18;2.53;;;22.40;99.90;;;;;;4234038;27;20277;-80
2022/06/13 04:22:33;;;;;;;5.40;2.65;;;22.40;99.90;;;;;;4235589;27;20220;-80
2022/06/13 04:24:46;;;;;;;5.18;2.70;;;22.40;99.90;;;;;;4236164;27;20254;-80
2022/06/13 04:26:53;;;;;;;5.72;2.55;;;22.40;99.90;;;;;;4238773;27;20220;-80
2022/06/13 04:29:04;;;;;;;4.35;2.42;;;22.40;99.90;;;;;;4239437;27;20903;-80
2022/06/13 04:31:09;;;;;;;4.88;2.90;;;22.40;99.90;;;;;;4234090;27;20262;-80
2022/06/13 04:33:16;;;;;;;4.20;2.63;;;22.40;99.90;;;;;;4238932;27;20271;-80
2022/06/13 04:35:19;;;;;;;5.75;2.70;;;22.40;99.90;;;;;;4237495;27;20225;-80
2022/06/13 04:37:23;;;;;;;5.32;2.70;;;22.40;99.90;;;;;;4233723;27;20213;-80
2022/06/13 04:39:29;;;;;;;6.53;2.60;;;22.40;99.90;;;;;;4235038;27;20253;-80
2022/06/13 04:41:35;;;;;;;4.35;2.28;;;22.40;99.90;;;;;;4236599;27;20210;-80
2022/06/13 04:43:41;;;;;;;5.18;2.63;;;22.40;99.90;;;;;;4236239;27;20269;-80
2022/06/13 04:45:52;;;;;;;5.35;2.83;;;22.40;99.90;;;;;;4236935;27;20314;-80
2022/06/13 04:47:57;;;;;;;4.90;2.45;;;22.40;99.90;;;;;;4236189;27;20258;-80
2022/06/13 04:50:00;;;;;;;5.45;2.85;;;22.50;99.90;;;;;;4237665;27;20249;-80
2022/06/13 04:52:08;;;;;;;5.03;2.60;;;22.40;99.90;;;;;;4237882;27;20990;-75
2022/06/13 04:54:17;;;;;;;5.53;2.67;;;22.40;99.90;;;;;;4236750;27;20660;-75
2022/06/13 04:56:20;;;;;;;5.10;2.67;;;22.40;99.90;;;;;;4232860;27;20637;-75
2022/06/13 04:58:29;;;;;;;4.10;2.25;;;22.50;99.90;;;;;;4233392;27;20270;-75
2022/06/13 05:00:34;;;;;;;5.03;2.60;;;22.50;99.90;;;;;;4232611;27;20214;-80
2022/06/13 05:02:42;;;;;;;4.60;2.47;;;22.40;99.90;;;;;;4237976;27;20221;-80
2022/06/13 05:04:46;;;;;;;5.38;2.50;;;22.40;99.90;;;;;;4236070;27;20665;-80
2022/06/13 05:06:50;;;;;;;6.53;2.90;;;22.50;99.90;;;;;;4239123;27;20261;-80
2022/06/13 05:08:56;;;;;;;6.57;2.65;;;22.50;99.90;;;;;;4240538;27;20284;-81
2022/06/13 05:11:12;;;;;;;5.82;2.95;;;22.50;99.90;;;;;;4216123;27;20234;-80
2022/06/13 05:13:15;;;;;;;6.75;2.85;;;22.50;99.90;;;;;;4212427;28;20624;-80
2022/06/13 05:15:20;;;;;;;4.75;2.80;;;22.50;99.90;;;;;;4211590;28;20218;-80
2022/06/13 05:17:40;;;;;;;4.63;2.42;;;22.50;99.90;;;;;;4210888;28;20662;-80
2022/06/13 05:19:54;;;;;;;4.97;2.70;;;22.50;99.90;;;;;;4212468;28;20259;-80
2022/06/13 05:22:05;;;;;;;4.32;2.35;;;22.50;99.90;;;;;;4211203;28;20249;-80
2022/06/13 05:24:23;;;;;;;4.72;2.70;;;22.60;99.90;;;;;;4212416;28;20604;-80
2022/06/13 05:26:29;;;;;;;5.70;2.55;;;22.50;99.90;;;;;;4211219;28;20214;-80
2022/06/13 05:28:34;;;;;;;5.28;2.63;;;22.60;99.90;;;;;;4206594;28;20855;-80
2022/06/13 05:30:36;;;;;;;4.45;2.60;;;22.50;99.90;;;;;;4202674;28;20367;-80
2022/06/13 05:32:39;;;;;;;5.60;2.70;;;22.50;99.90;;;;;;4212207;28;20210;-80
2022/06/13 05:34:43;;;;;;;5.15;2.47;;;22.50;99.90;;;;;;4209913;28;20264;-80
2022/06/13 05:36:47;;;;;;;3.58;2.47;;;22.50;99.90;;;;;;4195505;28;20278;-80
2022/06/13 05:38:53;;;;;;;3.90;2.47;;;22.50;99.90;;;;;;4211413;28;20223;-80
2022/06/13 05:40:56;;;;;;;4.78;2.60;;;22.60;99.90;;;;;;4211272;28;20218;-80
2022/06/13 05:42:58;;;;;;;4.47;2.55;;;22.60;99.90;;;;;;4212399;28;20271;-80
2022/06/13 05:45:00;;;;;;;6.38;2.83;;;22.60;99.90;;;;;;4211080;28;20210;-80
2022/06/13 05:47:03;;;;;;;5.22;2.58;;;22.50;99.90;;;;;;4211177;28;20300;-80
2022/06/13 05:49:06;;;;;;;6.10;2.75;;;22.60;99.90;;;;;;4210915;28;20218;-80
2022/06/13 05:51:08;;;;;;;5.22;3.10;;;22.50;99.90;;;;;;4209821;28;20694;-79
2022/06/13 05:53:12;;;;;;;5.57;2.47;;;22.50;99.90;;;;;;4210376;28;20226;-80
2022/06/13 05:55:17;;;;;;;6.35;3.22;;;22.60;99.90;;;;;;4211103;28;20260;-80
2022/06/13 05:57:19;;;;;;;6.32;2.60;;;22.60;99.90;;;;;;4209861;28;20226;-80
2022/06/13 05:59:21;;;;;;;5.50;2.60;;;22.60;99.90;;;;;;4211818;28;20226;-80
2022/06/13 06:01:24;;;;;;;5.68;2.65;;;22.60;99.90;;;;;;4209904;28;20214;-80
2022/06/13 06:03:27;;;;;;;5.45;2.75;;;22.60;99.90;;;;;;4211246;28;20242;-80
2022/06/13 06:05:30;;;;;;;6.80;2.60;;;22.50;99.90;;;;;;4210469;28;20269;-79
2022/06/13 06:07:35;;;;;;;7.03;3.03;;;22.50;99.90;;;;;;4208800;28;20214;-80
2022/06/13 06:09:39;;;;;;;5.50;2.70;;;22.50;99.90;;;;;;4209337;28;20222;-79
2022/06/13 06:11:41;;;;;;;4.40;2.50;;;22.60;99.90;;;;;;4211201;28;20210;-80
2022/06/13 06:13:44;;;;;;;5.85;2.47;;;22.60;99.90;;;;;;4209715;28;20215;-80
2022/06/13 06:15:48;;;;;;;5.22;2.42;;;22.60;99.90;;;;;;4210453;28;20215;-80
2022/06/13 06:17:50;;;;;;;4.45;2.83;;;22.60;99.90;;;;;;4210936;28;20284;-80
2022/06/13 06:19:54;;;;;;;4.60;2.60;;;22.60;99.90;;;;;;4210856;28;20207;-80
2022/06/13 06:21:56;;;;;;;5.72;2.95;;;22.60;99.90;;;;;;4195305;28;20211;-80
2022/06/13 06:23:58;;;;;;;5.20;2.65;;;22.60;99.90;;;;;;4210532;28;20260;-80
2022/06/13 06:26:02;;;;;;;6.10;2.90;;;22.70;99.90;;;;;;4210416;28;20218;-80
2022/06/13 06:28:05;;;;;;;5.72;2.53;;;22.60;99.90;;;;;;4211299;28;20206;-80
2022/06/13 06:30:09;;;;;;;5.95;2.95;;;22.60;99.90;;;;;;4210327;28;20280;-81
2022/06/13 06:32:11;;;;;;;6.18;3.00;;;22.60;99.90;;;;;;4211617;28;20271;-80
2022/06/13 06:34:14;;;;;;;5.78;2.50;;;22.60;99.90;;;;;;4211366;28;20621;-80
2022/06/13 06:36:16;;;;;;;6.07;2.65;;;22.60;99.90;;;;;;4210477;28;20222;-81
2022/06/13 06:38:19;;;;;;;4.75;2.53;;;22.70;99.90;;;;;;4211448;28;20255;-80
2022/06/13 06:40:25;;;;;;;7.88;2.75;;;22.60;99.90;;;;;;4211089;28;20214;-76
2022/06/13 06:42:28;;;;;;;8.13;2.63;;;22.70;99.90;;;;;;4208048;28;20222;-80
2022/06/13 06:44:31;;;;;;;5.75;2.70;;;22.50;99.90;;;;;;4211123;28;20267;-81
2022/06/13 06:46:33;;;;;;;9.77;3.50;;;22.50;99.90;;;;;;4211342;28;20268;-78
2022/06/13 06:48:36;;;;;;;15.07;3.63;;;22.50;99.90;;;;;;4209352;28;20218;-81
2022/06/13 06:50:41;;;;;;;14.55;4.07;;;22.50;99.90;;;;;;4212470;28;20984;-80
2022/06/13 06:52:43;;;;;;;14.55;4.47;;;22.30;99.90;;;;;;4208285;28;20256;-81
2022/06/13 07:01:46;;;;;;;11.32;3.60;;;21.80;99.90;;;;;;4209717;28;20199;-80
2022/06/13 07:03:48;;;;;;;11.95;3.67;;;21.40;99.90;;;;;;4208551;28;20276;-81
2022/06/13 07:05:51;;;;;;;8.70;2.97;;;21.20;99.90;;;;;;4207367;28;20241;-79
2022/06/13 07:07:53;;;;;;;15.02;3.60;;;21.20;99.90;;;;;;4198829;28;20658;-78
2022/06/13 07:09:56;;;;;;;8.85;3.22;;;21.30;99.90;;;;;;4206080;28;20295;-77
2022/06/13 07:11:58;;;;;;;10.65;2.80;;;21.20;99.90;;;;;;4206547;28;20230;-75
2022/06/13 07:14:00;;;;;;;8.98;3.20;;;21.10;99.90;;;;;;4205328;28;20214;-78
2022/06/13 07:16:06;;;;;;;9.88;3.08;;;21.10;99.90;;;;;;4202784;28;20216;-78
2022/06/13 07:18:09;;;;;;;9.88;2.80;;;21.00;99.90;;;;;;4200026;28;20223;-76
2022/06/13 07:20:13;;;;;;;10.52;2.58;;;21.10;99.90;;;;;;4201927;28;20675;-77
2022/06/13 07:22:18;;;;;;;12.13;3.05;;;20.90;99.90;;;;;;4204746;28;20222;-78
2022/06/13 07:24:21;;;;;;;11.77;2.60;;;20.90;99.90;;;;;;4205376;28;20217;-77
2022/06/13 07:26:23;;;;;;;6.22;2.30;;;21.10;99.90;;;;;;4208717;28;20215;-78
2022/06/13 07:28:26;;;;;;;6.72;2.78;;;21.30;99.90;;;;;;4204822;28;20218;-78
2022/06/13 07:30:30;;;;;;;10.45;2.60;;;21.40;99.90;;;;;;4201879;28;20214;-79
2022/06/13 07:32:33;;;;;;;8.57;2.17;;;21.40;99.90;;;;;;4201347;28;20244;-76
2022/06/13 07:34:37;;;;;;;8.20;2.78;;;21.50;99.90;;;;;;4201060;28;20222;-78
2022/06/13 07:36:39;;;;;;;8.55;2.28;;;21.50;99.90;;;;;;4204075;28;20210;-77
2022/06/13 07:38:42;;;;;;;9.13;2.47;;;21.50;99.90;;;;;;4191944;28;21080;-77
2022/06/13 07:40:45;;;;;;;10.77;2.72;;;21.50;99.90;;;;;;4183550;28;20296;-77
2022/06/13 07:42:51;;;;;;;10.15;2.60;;;21.60;99.90;;;;;;4187128;28;20299;-79
2022/06/13 07:44:57;;;;;;;9.80;2.47;;;21.70;99.90;;;;;;4187199;28;20288;-79
2022/06/13 07:47:00;;;;;;;10.00;2.20;;;21.80;99.90;;;;;;4189337;28;20227;-80
2022/06/13 07:49:03;;;;;;;7.40;2.30;;;21.90;99.90;;;;;;4190347;28;20567;-78
2022/06/13 07:51:06;;;;;;;9.27;2.63;;;21.70;99.90;;;;;;4189748;28;20328;-77
2022/06/13 07:53:09;;;;;;;5.10;2.00;;;21.90;99.90;;;;;;4185219;28;20222;-77
2022/06/13 07:55:12;;;;;;;7.95;1.98;;;21.90;99.90;;;;;;4191932;28;20222;-77
2022/06/13 07:57:14;;;;;;;7.45;2.45;;;22.00;99.90;;;;;;4206562;28;20256;-78
2022/06/13 07:59:20;;;;;;;9.32;2.60;;;22.00;99.90;;;;;;4206584;28;20272;-76
2022/06/13 08:01:24;;;;;;;8.85;2.38;;;22.00;99.90;;;;;;4201488;28;20930;-76
2022/06/13 08:03:29;;;;;;;5.72;2.40;;;22.10;99.90;;;;;;4205363;28;20203;-77
2022/06/13 08:05:33;;;;;;;5.97;2.10;;;22.10;99.90;;;;;;4203705;28;20293;-76
2022/06/13 08:07:35;;;;;;;12.05;2.67;;;22.00;99.90;;;;;;4201254;28;20655;-77
2022/06/13 08:09:40;;;;;;;9.10;2.08;;;22.10;99.90;;;;;;4209433;28;20226;-78
2022/06/13 08:11:46;;;;;;;8.63;2.40;;;22.20;99.90;;;;;;4214918;28;20689;-73
2022/06/13 08:13:48;;;;;;;10.30;2.22;;;22.10;99.90;;;;;;4221910;28;20214;-73
2022/06/13 08:15:51;;;;;;;10.45;2.33;;;22.20;99.90;;;;;;4217724;28;20205;-73
2022/06/13 08:17:55;;;;;;;13.48;2.65;;;22.10;99.90;;;;;;4212810;28;20214;-74
2022/06/13 08:19:58;;;;;;;9.32;2.50;;;22.00;99.90;;;;;;4219207;28;20214;-74
2022/06/13 08:22:01;;;;;;;10.07;2.65;;;21.90;99.90;;;;;;4220248;28;20217;-73
2022/06/13 08:24:04;;;;;;;7.68;2.60;;;21.90;99.90;;;;;;4220760;28;20267;-74
2022/06/13 08:26:07;;;;;;;9.75;2.63;;;21.80;99.90;;;;;;4222896;28;20561;-73
2022/06/13 08:28:11;;;;;;;8.35;2.78;;;21.80;99.90;;;;;;4222274;27;20258;-73
2022/06/13 08:30:15;;;;;;;9.93;2.83;;;21.90;99.90;;;;;;4221222;28;20271;-74
2022/06/13 08:32:17;;;;;;;8.70;2.40;;;21.90;99.90;;;;;;4223040;28;20564;-74
2022/06/13 08:34:19;;;;;;;7.80;2.55;;;21.90;99.90;;;;;;4227580;27;20279;-74
2022/06/13 08:36:22;;;;;;;6.57;2.53;;;21.90;99.90;;;;;;4223753;27;20913;-74
2022/06/13 08:38:26;;;;;;;6.80;2.70;;;22.00;99.90;;;;;;4226900;27;20285;-73
2022/06/13 08:40:35;;;;;;;8.05;2.72;;;22.00;99.90;;;;;;4220226;27;20275;-74
2022/06/13 08:42:43;;;;;;;8.93;2.88;;;21.90;99.90;;;;;;4218237;28;20612;-74
2022/06/13 08:44:53;;;;;;;7.78;2.97;;;21.90;99.90;;;;;;4226215;27;20262;-74
2022/06/13 08:47:03;;;;;;;9.30;2.65;;;21.80;99.90;;;;;;4232772;27;20238;-73
2022/06/13 08:49:15;;;;;;;11.90;2.47;;;21.80;99.90;;;;;;4240425;27;20270;-73
2022/06/13 08:51:23;;;;;;;12.70;2.70;;;21.80;99.90;;;;;;4239760;27;20664;-73
2022/06/13 08:53:33;;;;;;;8.40;2.90;;;21.80;99.90;;;;;;4232518;27;20274;-73
2022/06/13 08:55:41;;;;;;;9.77;3.08;;;21.80;99.90;;;;;;4240833;27;20261;-73
2022/06/13 08:57:48;;;;;;;7.90;2.55;;;21.90;99.90;;;;;;4238493;27;20281;-73
2022/06/13 08:59:56;;;;;;;9.88;2.88;;;21.90;99.90;;;;;;4238888;27;20265;-73
2022/06/13 09:02:04;;;;;;;9.18;2.50;;;21.80;99.90;;;;;;4240314;27;20281;-73
2022/06/13 09:04:10;;;;;;;9.20;2.47;;;21.80;99.90;;;;;;4233559;27;20212;-73
2022/06/13 09:06:18;;;;;;;8.18;2.47;;;21.80;99.90;;;;;;4235021;27;20205;-73
2022/06/13 09:08:28;;;;;;;7.25;2.40;;;21.90;99.90;;;;;;4241106;27;20213;-73
2022/06/13 09:10:37;;;;;;;7.13;2.67;;;22.00;99.90;;;;;;4236879;27;20309;-73
2022/06/13 09:12:47;;;;;;;9.90;2.42;;;22.00;99.90;;;;;;4240341;27;20233;-74
2022/06/13 09:15:01;;;;;;;6.40;2.60;;;22.10;99.90;;;;;;4233745;27;20232;-74
2022/06/13 09:17:12;;;;;;;5.35;2.33;;;22.00;99.90;;;;;;4242551;27;20273;-74
2022/06/13 09:19:21;;;;;;;7.07;2.40;;;22.00;99.90;;;;;;4240599;27;20721;-74
2022/06/13 09:21:31;;;;;;;8.10;2.55;;;22.00;99.90;;;;;;4239979;27;20254;-74
2022/06/13 09:23:38;;;;;;;4.97;2.40;;;22.00;99.90;;;;;;4239529;27;20297;-74
2022/06/13 09:25:47;;;;;;;6.93;2.30;;;22.00;99.80;;;;;;4241406;27;20577;-74
2022/06/13 09:27:55;;;;;;;5.25;2.30;;;22.00;99.10;;;;;;4241729;27;20221;-73
2022/06/13 09:30:02;;;;;;;8.07;2.22;;;22.00;99.00;;;;;;4243667;27;20216;-73
2022/06/13 09:32:11;;;;;;;5.60;2.47;;;22.00;99.10;;;;;;4237666;27;20237;-74
2022/06/13 09:34:31;;;;;;;3.03;1.60;;;22.00;99.10;;;;;;4241384;27;20216;-74
2022/06/13 09:36:36;;;;;;;5.35;2.10;;;22.00;99.20;;;;;;4239159;27;20266;-74
2022/06/13 09:38:45;;;;;;;4.72;2.20;;;22.10;99.10;;;;;;4243599;27;20230;-74
2022/06/13 09:41:08;;;;;;;6.07;2.00;;;22.00;99.00;;;;;;4238618;27;20217;-73
2022/06/13 09:43:22;;;;;;;7.60;1.85;;;22.20;98.70;;;;;;4238499;27;20209;-73
2022/06/13 09:45:35;;;;;;;5.38;2.10;;;22.20;98.30;;;;;;4237549;27;20664;-73
2022/06/13 09:47:47;;;;;;;5.70;2.25;;;22.20;98.00;;;;;;4236343;27;20267;-74
2022/06/13 09:49:59;;;;;;;5.05;1.63;;;22.20;97.50;;;;;;4239750;27;20273;-74
2022/06/13 09:52:07;;;;;;;6.00;2.25;;;22.20;97.40;;;;;;4241049;27;20236;-74
2022/06/13 09:54:20;;;;;;;6.13;2.08;;;22.20;97.00;;;;;;4235968;27;20205;-74
2022/06/13 09:56:38;;;;;;;5.07;1.83;;;22.10;97.00;;;;;;4239008;27;20710;-74
2022/06/13 09:58:55;;;;;;;7.50;1.98;;;22.10;97.10;;;;;;4238538;27;20209;-73
2022/06/13 10:01:05;;;;;;;6.55;1.88;;;22.10;97.00;;;;;;4238123;27;20205;-74
2022/06/13 10:03:18;;;;;;;7.45;2.00;;;22.10;97.00;;;;;;4239533;27;20220;-74
2022/06/13 10:05:40;;;;;;;5.53;1.70;;;22.10;97.50;;;;;;4239239;27;20217;-73
2022/06/13 10:07:49;;;;;;;8.40;2.25;;;22.20;97.60;;;;;;4234212;27;20213;-74
2022/06/13 10:09:59;;;;;;;5.93;1.83;;;22.20;97.90;;;;;;4241108;27;20301;-74
2022/06/13 10:12:12;;;;;;;3.97;1.67;;;22.30;97.40;;;;;;4238249;27;20258;-75
2022/06/13 10:14:26;;;;;;;8.38;2.05;;;22.30;97.10;;;;;;4233229;27;20838;-75
2022/06/13 10:16:35;;;;;;;9.95;2.13;;;22.40;96.70;;;;;;4237018;27;20208;-74
2022/06/13 10:18:53;;;;;;;6.30;1.60;;;22.30;96.40;;;;;;4236494;27;20278;-75
2022/06/13 10:21:00;;;;;;;6.03;1.73;;;22.10;96.20;;;;;;4242423;27;20269;-74
2022/06/13 10:23:11;;;;;;;5.63;1.95;;;22.20;95.80;;;;;;4238835;27;20212;-74
2022/06/13 10:25:29;;;;;;;4.90;1.55;;;22.20;96.00;;;;;;4239767;27;20209;-74
2022/06/13 10:27:42;;;;;;;10.43;1.80;;;22.30;95.90;;;;;;4236918;27;20277;-75
2022/06/13 10:30:07;;;;;;;6.90;1.75;;;22.30;95.70;;;;;;4232759;27;20298;-77
2022/06/13 10:32:24;;;;;;;4.07;1.60;;;22.30;96.10;;;;;;4233960;27;20212;-76
2022/06/13 10:34:36;;;;;;;4.25;1.30;;;22.50;97.00;;;;;;4239063;27;20676;-77
2022/06/13 10:36:45;;;;;;;5.15;1.80;;;22.70;97.00;;;;;;4240401;27;20614;-75
2022/06/13 10:38:57;;;;;;;6.68;1.77;;;22.80;97.10;;;;;;4240588;27;20217;-77
2022/06/13 10:40:59;;;;;;;5.50;1.98;;;22.90;97.10;;;;;;4238329;27;20218;-77
2022/06/13 10:43:05;;;;;;;4.18;1.50;;;23.00;97.00;;;;;;4236768;27;20213;-77
2022/06/13 10:45:10;;;;;;;4.22;1.77;;;23.00;97.00;;;;;;4239162;27;20580;-81
2022/06/13 10:47:18;;;;;;;4.55;1.70;;;23.10;97.00;;;;;;4239222;27;20247;-83
2022/06/13 10:49:24;;;;;;;4.32;1.63;;;23.10;97.00;;;;;;4242733;27;20606;-82
2022/06/13 10:51:27;;;;;;;8.07;2.00;;;23.20;97.00;;;;;;4237401;27;20717;-82
2022/06/13 10:53:36;;;;;;;5.80;1.50;;;23.20;98.20;;;;;;4238101;27;20244;-81
2022/06/13 10:55:41;;;;;;;14.30;1.88;;;23.20;98.70;;;;;;4241545;27;20434;-81
2022/06/13 10:57:48;;;;;;;8.27;1.70;;;23.30;98.50;;;;;;4240199;27;20246;-78
2022/06/13 11:00:12;;;;;;;7.05;1.50;;;23.30;98.70;;;;;;4241596;27;20262;-78
2022/06/13 11:02:25;;;;;;;4.13;1.70;;;23.30;98.10;;;;;;4238402;27;20258;-80
2022/06/13 11:04:29;;;;;;;13.10;1.50;;;23.20;96.70;;;;;;4237328;27;20216;-80
2022/06/13 11:06:40;;;;;;;6.15;1.60;;;23.00;96.10;;;;;;4238445;27;20222;-84
2022/06/13 11:08:43;;;;;;;5.70;1.52;;;23.00;96.30;;;;;;4236911;27;20217;-78
2022/06/13 11:10:54;;;;;;;4.55;1.75;;;23.00;96.20;;;;;;4243355;27;20404;-78